RYR9279 GMAD-EPKK
Flight info
| Callsign | RYR9279 |
|---|---|
| Flight time | 4h 4m |
| Altitude | 36000 |
| Route | MOGBA UH400 AGOVA UM372 FES UG850 BERUM DCT GONZA DCT AMR N860 BEGOX M445 SOPET M985 LUMAS DCT NIBIK DCT STP DCT RAPED DCT PIGOS DCT EKSID DCT NOSTA DCT NOPMU DCT LAGEN DCT ROBAS DCT NOBMI DCT MALUG DCT INGID DCT STO DCT LEDVA DCT NETIR |
| Aircraft | B38M/M-SDE1FGHILORVWXY/HB1 |
Departure
| Time | 2026-04-07 11:52 |
|---|---|
| Airport | Al Massira Airport (GMAD) |
Arrival
| Time | 2026-04-07 15:56 |
|---|---|
| Airport | Kraków John Paul II International Airport (EPKK) |
| Time | Latitude | Longitude | Altitude | Speed | Heading |
|---|---|---|---|---|---|
| 2026-04-07 11:52 | 30.24121 | -9.69537 | 11319 ft | 302 kts | 236° |
| 2026-04-07 11:52 | 30.22716 | -9.71360 | 11666 ft | 317 kts | 217° |
| 2026-04-07 11:52 | 30.20716 | -9.72641 | 11989 ft | 335 kts | 200° |
| 2026-04-07 11:52 | 30.18400 | -9.73202 | 12268 ft | 354 kts | 185° |
| 2026-04-07 11:53 | 30.15882 | -9.72993 | 12500 ft | 374 kts | 170° |
| 2026-04-07 11:53 | 30.13379 | -9.71938 | 12744 ft | 394 kts | 152° |
| 2026-04-07 11:53 | 30.11244 | -9.69884 | 13246 ft | 406 kts | 132° |
| 2026-04-07 11:53 | 30.09770 | -9.67071 | 13773 ft | 417 kts | 114° |
| 2026-04-07 11:54 | 30.09137 | -9.63777 | 14281 ft | 425 kts | 94° |
| 2026-04-07 11:54 | 30.09445 | -9.60364 | 14683 ft | 435 kts | 75° |
| 2026-04-07 11:54 | 30.10751 | -9.57215 | 15176 ft | 437 kts | 53° |
| 2026-04-07 11:54 | 30.12859 | -9.54692 | 15580 ft | 440 kts | 34° |
| 2026-04-07 11:55 | 30.15562 | -9.53084 | 16133 ft | 436 kts | 19° |
| 2026-04-07 11:55 | 30.18356 | -9.51644 | 16470 ft | 444 kts | 22° |
| 2026-04-07 11:55 | 30.21161 | -9.50117 | 16968 ft | 445 kts | 22° |
| 2026-04-07 11:55 | 30.23935 | -9.48601 | 17434 ft | 448 kts | 22° |
| 2026-04-07 11:56 | 30.26761 | -9.47031 | 17837 ft | 452 kts | 22° |
| 2026-04-07 11:56 | 30.29602 | -9.45456 | 18307 ft | 455 kts | 21° |
| 2026-04-07 11:56 | 30.32475 | -9.43859 | 18665 ft | 458 kts | 22° |
| 2026-04-07 11:56 | 30.35355 | -9.42260 | 19064 ft | 460 kts | 21° |
| 2026-04-07 11:57 | 30.38246 | -9.40656 | 19438 ft | 462 kts | 21° |
| 2026-04-07 11:57 | 30.41156 | -9.39039 | 19814 ft | 464 kts | 22° |
| 2026-04-07 11:57 | 30.44075 | -9.37415 | 20198 ft | 466 kts | 22° |
| 2026-04-07 11:57 | 30.47014 | -9.35782 | 20573 ft | 469 kts | 22° |
| 2026-04-07 11:58 | 30.49965 | -9.34140 | 20948 ft | 471 kts | 22° |
| 2026-04-07 11:58 | 30.52929 | -9.32491 | 21340 ft | 473 kts | 22° |
| 2026-04-07 11:58 | 30.55910 | -9.30829 | 21712 ft | 476 kts | 22° |
| 2026-04-07 11:58 | 30.58860 | -9.29187 | 22117 ft | 477 kts | 22° |
| 2026-04-07 11:59 | 30.61866 | -9.27510 | 22457 ft | 481 kts | 22° |
| 2026-04-07 11:59 | 30.64886 | -9.25824 | 22841 ft | 483 kts | 22° |
| 2026-04-07 11:59 | 30.67932 | -9.24125 | 23212 ft | 485 kts | 22° |
| 2026-04-07 11:59 | 30.70976 | -9.22424 | 23568 ft | 487 kts | 22° |
| 2026-04-07 12:00 | 30.74045 | -9.20711 | 23924 ft | 489 kts | 22° |
| 2026-04-07 12:00 | 30.77123 | -9.18988 | 24239 ft | 491 kts | 22° |
| 2026-04-07 12:00 | 30.80217 | -9.17258 | 24571 ft | 493 kts | 22° |
| 2026-04-07 12:00 | 30.83320 | -9.15524 | 24888 ft | 495 kts | 21° |
| 2026-04-07 12:01 | 30.86432 | -9.13780 | 25192 ft | 497 kts | 21° |
| 2026-04-07 12:01 | 30.89510 | -9.12056 | 25577 ft | 498 kts | 21° |
| 2026-04-07 12:01 | 30.92647 | -9.10298 | 25858 ft | 501 kts | 21° |
| 2026-04-07 12:01 | 30.95780 | -9.08541 | 26316 ft | 499 kts | 21° |
| 2026-04-07 12:02 | 30.98890 | -9.06749 | 26756 ft | 499 kts | 25° |
| 2026-04-07 12:02 | 31.01712 | -9.04353 | 27152 ft | 507 kts | 40° |
| 2026-04-07 12:02 | 31.04020 | -9.01233 | 27641 ft | 509 kts | 49° |
| 2026-04-07 12:02 | 31.06197 | -8.97958 | 28071 ft | 510 kts | 49° |
| 2026-04-07 12:03 | 31.08336 | -8.94667 | 28490 ft | 510 kts | 49° |
| 2026-04-07 12:03 | 31.10464 | -8.91348 | 28987 ft | 508 kts | 49° |
| 2026-04-07 12:03 | 31.12565 | -8.88040 | 29457 ft | 507 kts | 50° |
| 2026-04-07 12:03 | 31.14663 | -8.84731 | 29775 ft | 507 kts | 50° |
| 2026-04-07 12:04 | 31.16755 | -8.81425 | 30259 ft | 505 kts | 49° |
| 2026-04-07 12:04 | 31.18810 | -8.78174 | 30613 ft | 504 kts | 50° |
| 2026-04-07 12:04 | 31.20890 | -8.74882 | 31015 ft | 502 kts | 50° |
| 2026-04-07 12:04 | 31.22958 | -8.71604 | 31459 ft | 499 kts | 50° |
| 2026-04-07 12:05 | 31.25014 | -8.68345 | 31873 ft | 497 kts | 50° |
| 2026-04-07 12:05 | 31.27058 | -8.65101 | 32282 ft | 494 kts | 50° |
| 2026-04-07 12:05 | 31.29092 | -8.61870 | 32678 ft | 492 kts | 50° |
| 2026-04-07 12:05 | 31.31118 | -8.58650 | 33073 ft | 490 kts | 50° |
| 2026-04-07 12:06 | 31.33133 | -8.55438 | 33464 ft | 489 kts | 50° |
| 2026-04-07 12:06 | 31.35138 | -8.52238 | 33853 ft | 486 kts | 50° |
| 2026-04-07 12:06 | 31.37136 | -8.49049 | 34176 ft | 486 kts | 50° |
| 2026-04-07 12:06 | 31.39132 | -8.45859 | 34157 ft | 484 kts | 50° |
| 2026-04-07 12:07 | 31.43082 | -8.39541 | 34164 ft | 484 kts | 50° |
| 2026-04-07 12:07 | 31.47061 | -8.33164 | 34165 ft | 484 kts | 50° |
| 2026-04-07 12:08 | 31.51038 | -8.26781 | 34147 ft | 485 kts | 50° |
| 2026-04-07 12:08 | 31.55022 | -8.20376 | 34136 ft | 485 kts | 51° |
| 2026-04-07 12:09 | 31.58992 | -8.13984 | 34127 ft | 485 kts | 51° |
| 2026-04-07 12:09 | 31.62631 | -8.07303 | 34148 ft | 488 kts | 59° |
| 2026-04-07 12:10 | 31.65843 | -8.00289 | 34127 ft | 488 kts | 59° |
| 2026-04-07 12:10 | 31.69024 | -7.93303 | 34133 ft | 489 kts | 59° |
| 2026-04-07 12:11 | 31.72226 | -7.86257 | 34142 ft | 489 kts | 59° |
| 2026-04-07 12:11 | 31.75427 | -7.79198 | 34150 ft | 489 kts | 60° |
| 2026-04-07 12:12 | 31.78625 | -7.72133 | 34150 ft | 490 kts | 60° |
| 2026-04-07 12:12 | 31.81826 | -7.65046 | 34161 ft | 490 kts | 60° |
| 2026-04-07 12:13 | 31.85003 | -7.57998 | 34154 ft | 491 kts | 60° |
| 2026-04-07 12:13 | 31.88200 | -7.50892 | 34148 ft | 491 kts | 60° |
| 2026-04-07 12:14 | 31.91400 | -7.43762 | 34152 ft | 492 kts | 60° |
| 2026-04-07 12:14 | 31.94598 | -7.36624 | 34149 ft | 493 kts | 60° |
| 2026-04-07 12:15 | 31.97792 | -7.29481 | 34148 ft | 493 kts | 61° |
| 2026-04-07 12:15 | 32.00989 | -7.22317 | 34146 ft | 494 kts | 61° |
| 2026-04-07 12:16 | 32.04160 | -7.15192 | 34150 ft | 494 kts | 61° |
| 2026-04-07 12:16 | 32.07353 | -7.08004 | 34151 ft | 494 kts | 61° |
| 2026-04-07 12:17 | 32.10542 | -7.00809 | 34149 ft | 495 kts | 61° |
| 2026-04-07 12:17 | 32.13705 | -6.93660 | 34142 ft | 495 kts | 62° |
| 2026-04-07 12:18 | 32.16891 | -6.86443 | 34140 ft | 495 kts | 62° |
| 2026-04-07 12:18 | 32.20073 | -6.79223 | 34136 ft | 495 kts | 62° |
| 2026-04-07 12:19 | 32.23248 | -6.72007 | 34142 ft | 496 kts | 62° |
| 2026-04-07 12:19 | 32.26425 | -6.64769 | 34137 ft | 496 kts | 62° |
| 2026-04-07 12:20 | 32.29603 | -6.57515 | 34134 ft | 497 kts | 62° |
| 2026-04-07 12:20 | 32.32758 | -6.50300 | 34131 ft | 498 kts | 62° |
| 2026-04-07 12:21 | 32.35935 | -6.43022 | 34132 ft | 498 kts | 62° |
| 2026-04-07 12:21 | 32.39112 | -6.35728 | 34132 ft | 499 kts | 62° |
| 2026-04-07 12:22 | 32.43028 | -6.29035 | 34128 ft | 494 kts | 39° |
| 2026-04-07 12:22 | 32.48528 | -6.24157 | 34129 ft | 495 kts | 33° |
| 2026-04-07 12:23 | 32.54128 | -6.19415 | 34129 ft | 495 kts | 33° |
| 2026-04-07 12:23 | 32.59758 | -6.14695 | 34131 ft | 495 kts | 33° |
| 2026-04-07 12:24 | 32.65386 | -6.09974 | 34127 ft | 496 kts | 33° |
| 2026-04-07 12:24 | 32.71018 | -6.05243 | 34129 ft | 496 kts | 33° |
| 2026-04-07 12:25 | 32.76656 | -6.00509 | 34121 ft | 496 kts | 33° |
| 2026-04-07 12:25 | 32.82263 | -5.95797 | 34125 ft | 497 kts | 33° |
| 2026-04-07 12:26 | 32.87903 | -5.91050 | 34123 ft | 497 kts | 33° |
| 2026-04-07 12:26 | 32.93561 | -5.86282 | 34133 ft | 497 kts | 33° |
| 2026-04-07 12:27 | 32.99215 | -5.81508 | 34122 ft | 498 kts | 33° |
| 2026-04-07 12:27 | 33.04862 | -5.76732 | 34118 ft | 498 kts | 33° |
| 2026-04-07 12:28 | 33.10514 | -5.71944 | 34123 ft | 498 kts | 33° |
| 2026-04-07 12:29 | 33.18955 | -5.64781 | 34139 ft | 498 kts | 34° |
| 2026-04-07 12:29 | 33.24607 | -5.59973 | 34135 ft | 498 kts | 34° |
| 2026-04-07 12:30 | 33.30264 | -5.55155 | 34147 ft | 499 kts | 34° |
| 2026-04-07 12:30 | 33.35907 | -5.50340 | 34148 ft | 499 kts | 34° |
| 2026-04-07 12:31 | 33.41569 | -5.45502 | 34165 ft | 499 kts | 34° |
| 2026-04-07 12:31 | 33.47217 | -5.40665 | 34150 ft | 499 kts | 34° |
| 2026-04-07 12:32 | 33.52832 | -5.35844 | 34153 ft | 500 kts | 34° |
| 2026-04-07 12:32 | 33.58480 | -5.30989 | 34161 ft | 500 kts | 34° |
| 2026-04-07 12:33 | 33.64130 | -5.26122 | 34160 ft | 500 kts | 34° |
| 2026-04-07 12:33 | 33.69788 | -5.21243 | 34182 ft | 500 kts | 34° |
| 2026-04-07 12:34 | 33.75441 | -5.16358 | 34182 ft | 500 kts | 34° |
| 2026-04-07 12:34 | 33.81092 | -5.11466 | 34181 ft | 500 kts | 35° |
| 2026-04-07 12:35 | 33.86702 | -5.06603 | 34201 ft | 500 kts | 35° |
| 2026-04-07 12:35 | 33.92338 | -5.01692 | 34184 ft | 501 kts | 36° |
| 2026-04-07 12:36 | 33.97892 | -4.96621 | 34187 ft | 501 kts | 36° |
| 2026-04-07 12:36 | 34.03462 | -4.91549 | 34180 ft | 501 kts | 36° |
| 2026-04-07 12:37 | 34.09039 | -4.86464 | 34175 ft | 502 kts | 36° |
| 2026-04-07 12:37 | 34.14608 | -4.81377 | 34154 ft | 502 kts | 36° |
| 2026-04-07 12:38 | 34.19237 | -4.77143 | 34155 ft | 503 kts | 37° |
| 2026-04-07 12:38 | 34.24814 | -4.72033 | 34146 ft | 503 kts | 37° |
| 2026-04-07 12:39 | 34.30388 | -4.66918 | 34150 ft | 503 kts | 37° |
| 2026-04-07 12:39 | 34.35964 | -4.61792 | 34148 ft | 503 kts | 37° |
| 2026-04-07 12:40 | 34.41535 | -4.56656 | 34146 ft | 504 kts | 37° |
| 2026-04-07 12:40 | 34.47110 | -4.51505 | 34146 ft | 504 kts | 37° |
| 2026-04-07 12:41 | 34.52692 | -4.46339 | 34133 ft | 504 kts | 37° |
| 2026-04-07 12:41 | 34.58222 | -4.41212 | 34131 ft | 504 kts | 37° |
| 2026-04-07 12:42 | 34.63795 | -4.36037 | 34154 ft | 504 kts | 37° |
| 2026-04-07 12:42 | 34.69364 | -4.30856 | 34154 ft | 504 kts | 37° |
| 2026-04-07 12:43 | 34.74931 | -4.25668 | 34162 ft | 504 kts | 37° |
| 2026-04-07 12:43 | 34.80494 | -4.20474 | 34153 ft | 504 kts | 37° |
| 2026-04-07 12:44 | 34.86029 | -4.15297 | 34155 ft | 503 kts | 37° |
| 2026-04-07 12:44 | 34.91590 | -4.10088 | 34162 ft | 504 kts | 37° |
| 2026-04-07 12:45 | 34.97149 | -4.04871 | 34146 ft | 505 kts | 37° |
| 2026-04-07 12:45 | 35.02716 | -3.99637 | 34149 ft | 505 kts | 38° |
| 2026-04-07 12:46 | 35.08277 | -3.94401 | 34156 ft | 505 kts | 38° |
| 2026-04-07 12:46 | 35.13841 | -3.89152 | 34159 ft | 505 kts | 38° |
| 2026-04-07 12:47 | 35.19369 | -3.83943 | 34159 ft | 505 kts | 37° |
| 2026-04-07 12:47 | 35.24957 | -3.78723 | 34159 ft | 505 kts | 37° |
| 2026-04-07 12:48 | 35.30542 | -3.73493 | 34153 ft | 505 kts | 37° |
| 2026-04-07 12:48 | 35.36124 | -3.68256 | 34154 ft | 505 kts | 37° |
| 2026-04-07 12:49 | 35.41703 | -3.63012 | 34149 ft | 505 kts | 37° |
| 2026-04-07 12:49 | 35.47273 | -3.57767 | 34145 ft | 505 kts | 38° |
| 2026-04-07 12:50 | 35.52812 | -3.52542 | 34147 ft | 505 kts | 38° |
| 2026-04-07 12:50 | 35.58383 | -3.47277 | 34144 ft | 505 kts | 38° |
| 2026-04-07 12:51 | 35.63955 | -3.42003 | 34144 ft | 505 kts | 38° |
| 2026-04-07 12:51 | 35.69524 | -3.36722 | 34143 ft | 505 kts | 38° |
| 2026-04-07 12:52 | 35.75084 | -3.31439 | 34141 ft | 505 kts | 38° |
| 2026-04-07 12:52 | 35.80604 | -3.26186 | 34139 ft | 504 kts | 38° |
| 2026-04-07 12:53 | 35.86145 | -3.20874 | 34145 ft | 504 kts | 38° |
| 2026-04-07 12:53 | 35.91683 | -3.15546 | 34143 ft | 504 kts | 38° |
| 2026-04-07 12:54 | 35.97218 | -3.10212 | 34142 ft | 504 kts | 38° |
| 2026-04-07 12:54 | 36.02748 | -3.04874 | 34145 ft | 504 kts | 38° |
| 2026-04-07 12:55 | 36.08272 | -2.99532 | 34143 ft | 504 kts | 38° |
| 2026-04-07 12:55 | 36.13757 | -2.94218 | 34146 ft | 504 kts | 38° |
| 2026-04-07 12:56 | 36.19306 | -2.88833 | 34144 ft | 503 kts | 38° |
| 2026-04-07 12:56 | 36.24779 | -2.83507 | 34140 ft | 503 kts | 38° |
| 2026-04-07 12:57 | 36.30272 | -2.78154 | 34143 ft | 503 kts | 38° |
| 2026-04-07 12:57 | 36.35769 | -2.72786 | 34144 ft | 502 kts | 38° |
| 2026-04-07 12:58 | 36.41251 | -2.67424 | 34144 ft | 502 kts | 38° |
| 2026-04-07 12:58 | 36.46732 | -2.62053 | 34141 ft | 501 kts | 38° |
| 2026-04-07 12:59 | 36.52211 | -2.56673 | 34146 ft | 501 kts | 38° |
| 2026-04-07 12:59 | 36.57676 | -2.51297 | 34139 ft | 501 kts | 38° |
| 2026-04-07 13:00 | 36.63105 | -2.45948 | 34135 ft | 500 kts | 38° |
| 2026-04-07 13:00 | 36.68560 | -2.40561 | 34133 ft | 500 kts | 38° |
| 2026-04-07 13:01 | 36.74013 | -2.35167 | 34130 ft | 500 kts | 39° |
| 2026-04-07 13:01 | 36.79460 | -2.29771 | 34129 ft | 500 kts | 39° |
| 2026-04-07 13:02 | 36.85099 | -2.24739 | 34129 ft | 497 kts | 26° |
| 2026-04-07 13:02 | 36.91241 | -2.20699 | 34133 ft | 499 kts | 27° |
| 2026-04-07 13:03 | 36.97363 | -2.16631 | 34137 ft | 498 kts | 27° |
| 2026-04-07 13:03 | 37.03448 | -2.12585 | 34139 ft | 498 kts | 27° |
| 2026-04-07 13:04 | 37.09568 | -2.08509 | 34145 ft | 498 kts | 27° |
| 2026-04-07 13:04 | 37.15673 | -2.04436 | 34144 ft | 497 kts | 27° |
| 2026-04-07 13:05 | 37.21775 | -2.00356 | 34139 ft | 496 kts | 27° |
| 2026-04-07 13:05 | 37.27920 | -1.96385 | 34148 ft | 496 kts | 26° |
| 2026-04-07 13:06 | 37.34072 | -1.92447 | 34153 ft | 495 kts | 26° |
| 2026-04-07 13:06 | 37.40205 | -1.88507 | 34146 ft | 495 kts | 26° |
| 2026-04-07 13:07 | 37.46337 | -1.84562 | 34150 ft | 494 kts | 26° |
| 2026-04-07 13:07 | 37.52462 | -1.80612 | 34146 ft | 494 kts | 26° |
| 2026-04-07 13:08 | 37.58542 | -1.76685 | 34143 ft | 494 kts | 26° |
| 2026-04-07 13:08 | 37.64666 | -1.72723 | 34149 ft | 494 kts | 26° |
| 2026-04-07 13:09 | 37.70772 | -1.68764 | 34152 ft | 493 kts | 26° |
| 2026-04-07 13:09 | 37.76882 | -1.64796 | 34144 ft | 493 kts | 26° |
| 2026-04-07 13:10 | 37.82973 | -1.60832 | 34151 ft | 492 kts | 26° |
| 2026-04-07 13:10 | 37.89025 | -1.56888 | 34152 ft | 491 kts | 26° |
| 2026-04-07 13:11 | 37.95081 | -1.52866 | 34152 ft | 491 kts | 27° |
| 2026-04-07 13:11 | 38.01128 | -1.48842 | 34155 ft | 490 kts | 27° |
| 2026-04-07 13:12 | 38.07169 | -1.44816 | 34153 ft | 490 kts | 27° |
| 2026-04-07 13:12 | 38.13166 | -1.40810 | 34159 ft | 489 kts | 27° |
| 2026-04-07 13:13 | 38.19186 | -1.36782 | 34158 ft | 489 kts | 27° |
| 2026-04-07 13:13 | 38.25205 | -1.32747 | 34164 ft | 488 kts | 27° |
| 2026-04-07 13:14 | 38.31213 | -1.28712 | 34158 ft | 488 kts | 27° |
| 2026-04-07 13:14 | 38.37214 | -1.24673 | 34161 ft | 488 kts | 27° |
| 2026-04-07 13:15 | 38.43217 | -1.20626 | 34161 ft | 488 kts | 27° |
| 2026-04-07 13:15 | 38.49209 | -1.16579 | 34162 ft | 487 kts | 27° |
| 2026-04-07 13:16 | 38.55161 | -1.12551 | 34165 ft | 487 kts | 27° |
| 2026-04-07 13:16 | 38.61163 | -1.08482 | 34169 ft | 487 kts | 27° |
| 2026-04-07 13:17 | 38.67153 | -1.04412 | 34171 ft | 487 kts | 27° |
| 2026-04-07 13:17 | 38.73138 | -1.00340 | 34165 ft | 487 kts | 28° |
| 2026-04-07 13:18 | 38.79118 | -0.96259 | 34164 ft | 487 kts | 28° |
| 2026-04-07 13:18 | 38.85074 | -0.92189 | 34171 ft | 488 kts | 28° |
| 2026-04-07 13:19 | 38.91055 | -0.88094 | 34167 ft | 488 kts | 28° |
| 2026-04-07 13:19 | 38.97050 | -0.83981 | 34172 ft | 488 kts | 28° |
| 2026-04-07 13:20 | 39.03049 | -0.79857 | 34174 ft | 488 kts | 28° |
| 2026-04-07 13:20 | 39.08783 | -0.75219 | 34185 ft | 485 kts | 42° |
| 2026-04-07 13:21 | 39.14000 | -0.69654 | 34189 ft | 487 kts | 40° |
| 2026-04-07 13:21 | 39.19187 | -0.64132 | 34183 ft | 487 kts | 41° |
| 2026-04-07 13:22 | 39.23532 | -0.59493 | 34187 ft | 487 kts | 41° |
| 2026-04-07 13:22 | 39.28792 | -0.53987 | 34184 ft | 487 kts | 37° |
| 2026-04-07 13:23 | 39.35143 | -0.47875 | 34181 ft | 487 kts | 38° |
| 2026-04-07 13:23 | 39.40525 | -0.42630 | 34182 ft | 487 kts | 38° |
| 2026-04-07 13:24 | 39.45933 | -0.37347 | 34184 ft | 486 kts | 38° |
| 2026-04-07 13:24 | 39.51326 | -0.32068 | 34186 ft | 485 kts | 38° |
| 2026-04-07 13:25 | 39.56708 | -0.26788 | 34185 ft | 485 kts | 38° |
| 2026-04-07 13:25 | 39.62053 | -0.21534 | 34190 ft | 484 kts | 38° |
| 2026-04-07 13:26 | 39.67415 | -0.16254 | 34193 ft | 483 kts | 38° |
| 2026-04-07 13:26 | 39.72771 | -0.10969 | 34191 ft | 483 kts | 38° |
| 2026-04-07 13:27 | 39.78114 | -0.05687 | 34194 ft | 482 kts | 38° |
| 2026-04-07 13:27 | 39.83416 | -0.00348 | 34191 ft | 481 kts | 44° |
| 2026-04-07 13:28 | 39.87234 | 0.04884 | 34175 ft | 479 kts | 48° |
| 2026-04-07 13:28 | 39.92550 | 0.12249 | 34197 ft | 480 kts | 48° |
| 2026-04-07 13:29 | 39.96377 | 0.17573 | 34200 ft | 480 kts | 48° |
| 2026-04-07 13:29 | 40.00912 | 0.23896 | 34199 ft | 481 kts | 48° |
| 2026-04-07 13:30 | 40.05476 | 0.30271 | 34201 ft | 481 kts | 48° |
| 2026-04-07 13:30 | 40.10045 | 0.36668 | 34200 ft | 481 kts | 48° |
| 2026-04-07 13:31 | 40.14608 | 0.43070 | 34198 ft | 482 kts | 47° |
| 2026-04-07 13:31 | 40.19183 | 0.49503 | 34196 ft | 482 kts | 47° |
| 2026-04-07 13:32 | 40.23745 | 0.55931 | 34190 ft | 480 kts | 47° |
| 2026-04-07 13:32 | 40.28253 | 0.62296 | 34193 ft | 479 kts | 47° |
| 2026-04-07 13:33 | 40.32779 | 0.68700 | 34190 ft | 478 kts | 47° |
| 2026-04-07 13:33 | 40.39527 | 0.78274 | 34195 ft | 475 kts | 47° |
| 2026-04-07 13:34 | 40.44004 | 0.84642 | 34192 ft | 473 kts | 47° |
| 2026-04-07 13:34 | 40.48440 | 0.90965 | 34191 ft | 472 kts | 47° |
| 2026-04-07 13:35 | 40.52884 | 0.97312 | 34190 ft | 471 kts | 47° |
| 2026-04-07 13:35 | 40.57317 | 1.03665 | 34196 ft | 471 kts | 47° |
| 2026-04-07 13:36 | 40.61737 | 1.10014 | 34193 ft | 470 kts | 47° |
| 2026-04-07 13:36 | 40.66154 | 1.16371 | 34192 ft | 470 kts | 47° |
| 2026-04-07 13:37 | 40.70573 | 1.22743 | 34191 ft | 470 kts | 46° |
| 2026-04-07 13:37 | 40.74961 | 1.29080 | 34193 ft | 470 kts | 46° |
| 2026-04-07 13:38 | 40.79377 | 1.35471 | 34194 ft | 470 kts | 46° |
| 2026-04-07 13:38 | 40.83785 | 1.41864 | 34197 ft | 470 kts | 46° |
| 2026-04-07 13:39 | 40.88188 | 1.48262 | 34193 ft | 471 kts | 46° |
| 2026-04-07 13:39 | 40.92557 | 1.54627 | 34195 ft | 471 kts | 46° |
| 2026-04-07 13:40 | 40.96958 | 1.61049 | 34198 ft | 471 kts | 46° |
| 2026-04-07 13:40 | 41.01354 | 1.67479 | 34199 ft | 470 kts | 46° |
| 2026-04-07 13:41 | 41.05741 | 1.73911 | 34198 ft | 470 kts | 46° |
| 2026-04-07 13:41 | 41.10125 | 1.80351 | 34201 ft | 470 kts | 46° |
| 2026-04-07 13:42 | 41.14509 | 1.86804 | 34202 ft | 470 kts | 46° |
| 2026-04-07 13:42 | 41.18878 | 1.93251 | 34207 ft | 470 kts | 46° |
| 2026-04-07 13:43 | 41.23242 | 1.99704 | 34211 ft | 469 kts | 46° |
| 2026-04-07 13:43 | 41.27573 | 2.06122 | 34216 ft | 469 kts | 46° |
| 2026-04-07 13:44 | 41.29614 | 2.09502 | 34198 ft | 470 kts | 58° |
| 2026-04-07 13:44 | 41.30963 | 2.13453 | 34215 ft | 471 kts | 72° |
| 2026-04-07 13:44 | 41.32641 | 2.21898 | 34213 ft | 473 kts | 75° |
| 2026-04-07 13:45 | 41.34197 | 2.30405 | 34207 ft | 473 kts | 76° |
| 2026-04-07 13:45 | 41.35705 | 2.38927 | 34209 ft | 473 kts | 76° |
| 2026-04-07 13:46 | 41.37206 | 2.47467 | 34198 ft | 473 kts | 76° |
| 2026-04-07 13:46 | 41.38698 | 2.56005 | 34202 ft | 474 kts | 76° |
| 2026-04-07 13:47 | 41.40189 | 2.64569 | 34202 ft | 474 kts | 76° |
| 2026-04-07 13:47 | 41.41672 | 2.73133 | 34201 ft | 474 kts | 76° |
| 2026-04-07 13:48 | 41.43141 | 2.81653 | 34197 ft | 475 kts | 76° |
| 2026-04-07 13:48 | 41.44614 | 2.90235 | 34197 ft | 475 kts | 76° |
| 2026-04-07 13:49 | 41.46084 | 2.98848 | 34203 ft | 476 kts | 76° |
| 2026-04-07 13:49 | 41.47545 | 3.07448 | 34202 ft | 476 kts | 76° |
| 2026-04-07 13:50 | 41.48994 | 3.16002 | 34206 ft | 476 kts | 76° |
| 2026-04-07 13:50 | 41.50444 | 3.24631 | 34207 ft | 476 kts | 76° |
| 2026-04-07 13:51 | 41.51888 | 3.33263 | 34207 ft | 476 kts | 76° |
| 2026-04-07 13:51 | 41.53326 | 3.41897 | 34207 ft | 477 kts | 76° |
| 2026-04-07 13:52 | 41.54758 | 3.50536 | 34211 ft | 477 kts | 76° |
| 2026-04-07 13:52 | 41.56187 | 3.59196 | 34210 ft | 477 kts | 76° |
| 2026-04-07 13:53 | 41.57597 | 3.67786 | 34212 ft | 477 kts | 76° |
| 2026-04-07 13:53 | 41.59022 | 3.76514 | 34210 ft | 477 kts | 76° |
| 2026-04-07 13:54 | 41.60420 | 3.85115 | 34212 ft | 478 kts | 76° |
| 2026-04-07 13:54 | 41.61824 | 3.93803 | 34216 ft | 478 kts | 76° |
| 2026-04-07 13:55 | 41.63219 | 4.02478 | 34214 ft | 478 kts | 76° |
| 2026-04-07 13:55 | 41.64609 | 4.11163 | 34220 ft | 477 kts | 76° |
| 2026-04-07 13:56 | 41.65990 | 4.19838 | 34216 ft | 477 kts | 76° |
| 2026-04-07 13:56 | 41.67366 | 4.28526 | 34214 ft | 477 kts | 76° |
| 2026-04-07 13:57 | 41.68733 | 4.37202 | 34217 ft | 477 kts | 76° |
| 2026-04-07 13:57 | 41.70096 | 4.45901 | 34224 ft | 477 kts | 76° |
| 2026-04-07 13:58 | 41.71442 | 4.54530 | 34220 ft | 476 kts | 76° |
| 2026-04-07 13:58 | 41.73293 | 4.62961 | 34211 ft | 468 kts | 58° |
| 2026-04-07 13:59 | 41.75142 | 4.66513 | 34217 ft | 463 kts | 44° |
| 2026-04-07 13:59 | 41.77547 | 4.69317 | 34226 ft | 456 kts | 31° |
| 2026-04-07 13:59 | 41.82952 | 4.73780 | 34225 ft | 456 kts | 27° |
| 2026-04-07 14:00 | 41.88451 | 4.78021 | 34225 ft | 455 kts | 27° |
| 2026-04-07 14:00 | 41.93965 | 4.82198 | 34229 ft | 455 kts | 27° |
| 2026-04-07 14:01 | 41.99481 | 4.86368 | 34228 ft | 454 kts | 27° |
| 2026-04-07 14:01 | 42.04985 | 4.90538 | 34224 ft | 454 kts | 27° |
| 2026-04-07 14:02 | 42.10482 | 4.94711 | 34231 ft | 454 kts | 28° |
| 2026-04-07 14:02 | 42.15946 | 4.98866 | 34232 ft | 453 kts | 28° |
| 2026-04-07 14:03 | 42.21439 | 5.03052 | 34229 ft | 453 kts | 28° |
| 2026-04-07 14:03 | 42.26931 | 5.07245 | 34230 ft | 452 kts | 28° |
| 2026-04-07 14:04 | 42.32411 | 5.11438 | 34233 ft | 452 kts | 29° |
| 2026-04-07 14:04 | 42.37860 | 5.15616 | 34238 ft | 452 kts | 29° |
| 2026-04-07 14:05 | 42.43330 | 5.19818 | 34233 ft | 451 kts | 29° |
| 2026-04-07 14:05 | 42.48780 | 5.24014 | 34240 ft | 451 kts | 30° |
| 2026-04-07 14:06 | 42.54228 | 5.28216 | 34238 ft | 450 kts | 30° |
| 2026-04-07 14:06 | 42.59666 | 5.32419 | 34243 ft | 449 kts | 30° |
| 2026-04-07 14:07 | 42.65089 | 5.36621 | 34240 ft | 449 kts | 31° |
| 2026-04-07 14:07 | 42.67551 | 5.39178 | 34235 ft | 445 kts | 47° |
| 2026-04-07 14:07 | 42.69420 | 5.42515 | 34255 ft | 445 kts | 57° |
| 2026-04-07 14:08 | 42.72783 | 5.49601 | 34247 ft | 445 kts | 58° |
| 2026-04-07 14:08 | 42.76053 | 5.56746 | 34247 ft | 444 kts | 58° |
| 2026-04-07 14:09 | 42.79264 | 5.63859 | 34249 ft | 443 kts | 59° |
| 2026-04-07 14:09 | 42.82479 | 5.71005 | 34250 ft | 442 kts | 59° |
| 2026-04-07 14:10 | 42.85687 | 5.78152 | 34249 ft | 441 kts | 59° |
| 2026-04-07 14:10 | 42.88877 | 5.85277 | 34249 ft | 440 kts | 59° |
| 2026-04-07 14:11 | 42.92059 | 5.92402 | 34253 ft | 439 kts | 59° |
| 2026-04-07 14:11 | 42.95229 | 5.99517 | 34254 ft | 439 kts | 59° |
| 2026-04-07 14:12 | 42.98394 | 6.06639 | 34257 ft | 438 kts | 59° |
| 2026-04-07 14:12 | 43.01550 | 6.13756 | 34264 ft | 438 kts | 60° |
| 2026-04-07 14:13 | 43.04677 | 6.20825 | 34266 ft | 437 kts | 60° |
| 2026-04-07 14:13 | 43.07815 | 6.27937 | 34254 ft | 436 kts | 60° |
| 2026-04-07 14:14 | 43.10948 | 6.35055 | 34249 ft | 435 kts | 60° |
| 2026-04-07 14:14 | 43.14070 | 6.42165 | 34236 ft | 435 kts | 60° |
| 2026-04-07 14:15 | 43.17184 | 6.49274 | 34230 ft | 435 kts | 60° |
| 2026-04-07 14:15 | 43.20297 | 6.56391 | 34227 ft | 435 kts | 60° |
| 2026-04-07 14:16 | 43.23065 | 6.62146 | 34236 ft | 436 kts | 55° |
| 2026-04-07 14:16 | 43.27224 | 6.69959 | 34234 ft | 435 kts | 56° |
| 2026-04-07 14:17 | 43.30754 | 6.76712 | 34248 ft | 435 kts | 56° |
| 2026-04-07 14:17 | 43.33681 | 6.82329 | 34252 ft | 435 kts | 56° |
| 2026-04-07 14:18 | 43.37201 | 6.89087 | 34258 ft | 436 kts | 56° |
| 2026-04-07 14:18 | 43.40746 | 6.95838 | 34261 ft | 436 kts | 56° |
| 2026-04-07 14:19 | 43.44291 | 7.02610 | 34262 ft | 436 kts | 56° |
| 2026-04-07 14:19 | 43.47826 | 7.09379 | 34263 ft | 435 kts | 56° |
| 2026-04-07 14:20 | 43.51355 | 7.16151 | 34263 ft | 435 kts | 57° |
| 2026-04-07 14:20 | 43.54888 | 7.22948 | 34262 ft | 436 kts | 57° |
| 2026-04-07 14:21 | 43.58417 | 7.29752 | 34261 ft | 436 kts | 57° |
| 2026-04-07 14:21 | 43.61946 | 7.36569 | 34262 ft | 436 kts | 57° |
| 2026-04-07 14:22 | 43.65469 | 7.43395 | 34264 ft | 437 kts | 57° |
| 2026-04-07 14:22 | 43.68988 | 7.50228 | 34263 ft | 437 kts | 57° |
| 2026-04-07 14:23 | 43.72483 | 7.57029 | 34261 ft | 437 kts | 57° |
| 2026-04-07 14:23 | 43.75996 | 7.63882 | 34253 ft | 437 kts | 57° |
| 2026-04-07 14:24 | 43.79511 | 7.70758 | 34256 ft | 437 kts | 57° |
| 2026-04-07 14:24 | 43.83506 | 7.77083 | 34261 ft | 442 kts | 40° |
| 2026-04-07 14:25 | 43.88357 | 7.82373 | 34259 ft | 444 kts | 41° |
| 2026-04-07 14:25 | 43.93229 | 7.87638 | 34258 ft | 444 kts | 40° |
| 2026-04-07 14:26 | 43.97821 | 7.93329 | 34260 ft | 442 kts | 46° |
| 2026-04-07 14:26 | 44.02222 | 7.99230 | 34266 ft | 442 kts | 46° |
| 2026-04-07 14:27 | 44.06645 | 8.05194 | 34260 ft | 443 kts | 46° |
| 2026-04-07 14:27 | 44.11061 | 8.11163 | 34267 ft | 443 kts | 46° |
| 2026-04-07 14:28 | 44.15484 | 8.17155 | 34267 ft | 444 kts | 46° |
| 2026-04-07 14:28 | 44.19909 | 8.23162 | 34258 ft | 444 kts | 46° |
| 2026-04-07 14:29 | 44.24336 | 8.29185 | 34249 ft | 445 kts | 46° |
| 2026-04-07 14:29 | 44.28760 | 8.35218 | 34248 ft | 445 kts | 46° |
| 2026-04-07 14:30 | 44.33183 | 8.41262 | 34246 ft | 445 kts | 46° |
| 2026-04-07 14:30 | 44.37608 | 8.47321 | 34247 ft | 445 kts | 46° |
| 2026-04-07 14:31 | 44.41844 | 8.53575 | 34253 ft | 445 kts | 49° |
| 2026-04-07 14:31 | 44.46052 | 8.59929 | 34259 ft | 444 kts | 49° |
| 2026-04-07 14:32 | 44.50266 | 8.66286 | 34255 ft | 445 kts | 49° |
| 2026-04-07 14:32 | 44.54449 | 8.72609 | 34252 ft | 445 kts | 48° |
| 2026-04-07 14:33 | 44.58652 | 8.78976 | 34254 ft | 445 kts | 48° |
| 2026-04-07 14:33 | 44.62849 | 8.85349 | 34244 ft | 444 kts | 48° |
| 2026-04-07 14:34 | 44.67044 | 8.91732 | 34227 ft | 444 kts | 48° |
| 2026-04-07 14:34 | 44.71232 | 8.98119 | 34206 ft | 445 kts | 48° |
| 2026-04-07 14:35 | 44.75436 | 9.04547 | 34193 ft | 447 kts | 48° |
| 2026-04-07 14:35 | 44.79623 | 9.10963 | 34176 ft | 448 kts | 48° |
| 2026-04-07 14:36 | 44.83841 | 9.17442 | 34167 ft | 448 kts | 48° |
| 2026-04-07 14:36 | 44.88052 | 9.23926 | 34164 ft | 448 kts | 48° |
| 2026-04-07 14:37 | 44.92260 | 9.30420 | 34146 ft | 448 kts | 48° |
| 2026-04-07 14:37 | 44.96467 | 9.36927 | 34143 ft | 449 kts | 48° |
| 2026-04-07 14:38 | 45.00678 | 9.43455 | 34136 ft | 449 kts | 48° |
| 2026-04-07 14:38 | 45.04879 | 9.49984 | 34132 ft | 449 kts | 48° |
| 2026-04-07 14:39 | 45.11183 | 9.59809 | 34130 ft | 449 kts | 48° |
| 2026-04-07 14:40 | 45.15356 | 9.66329 | 34142 ft | 450 kts | 48° |
| 2026-04-07 14:40 | 45.19526 | 9.72951 | 34132 ft | 450 kts | 50° |
| 2026-04-07 14:41 | 45.23522 | 9.79776 | 34140 ft | 450 kts | 50° |
| 2026-04-07 14:41 | 45.27539 | 9.86595 | 34155 ft | 450 kts | 50° |
| 2026-04-07 14:42 | 45.31553 | 9.93421 | 34149 ft | 450 kts | 50° |
| 2026-04-07 14:42 | 45.35564 | 10.00256 | 34157 ft | 450 kts | 50° |
| 2026-04-07 14:43 | 45.39572 | 10.07106 | 34165 ft | 450 kts | 50° |
| 2026-04-07 14:43 | 45.43579 | 10.13967 | 34157 ft | 450 kts | 50° |
| 2026-04-07 14:44 | 45.47562 | 10.20807 | 34154 ft | 451 kts | 50° |
| 2026-04-07 14:44 | 45.51562 | 10.27692 | 34154 ft | 450 kts | 50° |
| 2026-04-07 14:45 | 45.55559 | 10.34588 | 34129 ft | 450 kts | 50° |
| 2026-04-07 14:45 | 45.59549 | 10.41488 | 34155 ft | 450 kts | 50° |
| 2026-04-07 14:46 | 45.63532 | 10.48393 | 34175 ft | 450 kts | 50° |
| 2026-04-07 14:46 | 45.67312 | 10.55533 | 34193 ft | 451 kts | 52° |
| 2026-04-07 14:47 | 45.71063 | 10.62714 | 34217 ft | 451 kts | 52° |
| 2026-04-07 14:47 | 45.74818 | 10.69902 | 34230 ft | 450 kts | 52° |
| 2026-04-07 14:48 | 45.78564 | 10.77091 | 34247 ft | 450 kts | 52° |
| 2026-04-07 14:48 | 45.82286 | 10.84251 | 34244 ft | 451 kts | 52° |
| 2026-04-07 14:49 | 45.86031 | 10.91473 | 34257 ft | 451 kts | 52° |
| 2026-04-07 14:49 | 45.89772 | 10.98706 | 34249 ft | 452 kts | 52° |
| 2026-04-07 14:50 | 45.93511 | 11.05954 | 34247 ft | 452 kts | 52° |
| 2026-04-07 14:50 | 45.97256 | 11.13233 | 34258 ft | 452 kts | 52° |
| 2026-04-07 14:51 | 46.00993 | 11.20516 | 34265 ft | 452 kts | 52° |
| 2026-04-07 14:51 | 46.04727 | 11.27810 | 34258 ft | 452 kts | 52° |
| 2026-04-07 14:52 | 46.08432 | 11.35066 | 34252 ft | 453 kts | 52° |
| 2026-04-07 14:52 | 46.12164 | 11.42395 | 34239 ft | 453 kts | 52° |
| 2026-04-07 14:53 | 46.15883 | 11.49718 | 34218 ft | 453 kts | 52° |
| 2026-04-07 14:53 | 46.19596 | 11.57049 | 34163 ft | 453 kts | 52° |
| 2026-04-07 14:54 | 46.23312 | 11.64402 | 34146 ft | 453 kts | 52° |
| 2026-04-07 14:54 | 46.27028 | 11.71777 | 34146 ft | 454 kts | 52° |
| 2026-04-07 14:55 | 46.30725 | 11.79133 | 34137 ft | 455 kts | 52° |
| 2026-04-07 14:55 | 46.34441 | 11.86545 | 34126 ft | 456 kts | 52° |
| 2026-04-07 14:56 | 46.38159 | 11.93981 | 34119 ft | 455 kts | 52° |
| 2026-04-07 14:56 | 46.41873 | 12.01431 | 34137 ft | 456 kts | 52° |
| 2026-04-07 14:57 | 46.45589 | 12.08904 | 34150 ft | 456 kts | 52° |
| 2026-04-07 14:57 | 46.49302 | 12.16390 | 34158 ft | 457 kts | 52° |
| 2026-04-07 14:58 | 46.53014 | 12.23893 | 34172 ft | 457 kts | 52° |
| 2026-04-07 14:58 | 46.56695 | 12.31357 | 34190 ft | 457 kts | 52° |
| 2026-04-07 14:59 | 46.60398 | 12.38880 | 34189 ft | 457 kts | 52° |
| 2026-04-07 14:59 | 46.64095 | 12.46411 | 34183 ft | 457 kts | 52° |
| 2026-04-07 15:00 | 46.67788 | 12.53952 | 34173 ft | 458 kts | 52° |
| 2026-04-07 15:00 | 46.71552 | 12.61426 | 34163 ft | 457 kts | 50° |
| 2026-04-07 15:01 | 46.74776 | 12.67524 | 34169 ft | 457 kts | 50° |
| 2026-04-07 15:01 | 46.79293 | 12.76135 | 34150 ft | 457 kts | 50° |
| 2026-04-07 15:02 | 46.83145 | 12.83504 | 34156 ft | 456 kts | 50° |
| 2026-04-07 15:02 | 46.86990 | 12.90880 | 34156 ft | 456 kts | 50° |
| 2026-04-07 15:03 | 46.90810 | 12.98227 | 34177 ft | 456 kts | 50° |
| 2026-04-07 15:03 | 46.94024 | 13.04422 | 34153 ft | 456 kts | 50° |
| 2026-04-07 15:04 | 46.97862 | 13.11838 | 34167 ft | 456 kts | 49° |
| 2026-04-07 15:04 | 47.01662 | 13.19203 | 34174 ft | 456 kts | 49° |
| 2026-04-07 15:05 | 47.05489 | 13.26638 | 34156 ft | 456 kts | 49° |
| 2026-04-07 15:05 | 47.09307 | 13.34075 | 34179 ft | 457 kts | 49° |
| 2026-04-07 15:06 | 47.13130 | 13.41544 | 34186 ft | 456 kts | 49° |
| 2026-04-07 15:06 | 47.16944 | 13.49015 | 34183 ft | 457 kts | 49° |
| 2026-04-07 15:07 | 47.20731 | 13.56453 | 34196 ft | 457 kts | 49° |
| 2026-04-07 15:07 | 47.24541 | 13.63952 | 34188 ft | 457 kts | 50° |
| 2026-04-07 15:08 | 47.28365 | 13.71441 | 34210 ft | 457 kts | 49° |
| 2026-04-07 15:08 | 47.32203 | 13.78929 | 34207 ft | 457 kts | 49° |
| 2026-04-07 15:09 | 47.36030 | 13.86421 | 34173 ft | 457 kts | 49° |
| 2026-04-07 15:09 | 47.39856 | 13.93933 | 34175 ft | 457 kts | 49° |
| 2026-04-07 15:10 | 47.43670 | 14.01440 | 34185 ft | 457 kts | 49° |
| 2026-04-07 15:10 | 47.47459 | 14.08918 | 34182 ft | 457 kts | 49° |
| 2026-04-07 15:11 | 47.51265 | 14.16452 | 34198 ft | 457 kts | 49° |
| 2026-04-07 15:11 | 47.55066 | 14.23994 | 34200 ft | 457 kts | 49° |
| 2026-04-07 15:12 | 47.58858 | 14.31541 | 34196 ft | 457 kts | 49° |
| 2026-04-07 15:12 | 47.62657 | 14.39121 | 34283 ft | 458 kts | 49° |
| 2026-04-07 15:12 | 47.64551 | 14.42909 | 34538 ft | 456 kts | 49° |
| 2026-04-07 15:13 | 47.66437 | 14.46686 | 34770 ft | 454 kts | 49° |
| 2026-04-07 15:13 | 47.68316 | 14.50453 | 35000 ft | 455 kts | 49° |
| 2026-04-07 15:13 | 47.70175 | 14.54186 | 35153 ft | 455 kts | 49° |
| 2026-04-07 15:14 | 47.73918 | 14.61719 | 35202 ft | 453 kts | 49° |
| 2026-04-07 15:14 | 47.77653 | 14.69255 | 35194 ft | 453 kts | 49° |
| 2026-04-07 15:15 | 47.81388 | 14.76810 | 35229 ft | 454 kts | 49° |
| 2026-04-07 15:15 | 47.85110 | 14.84361 | 35203 ft | 452 kts | 49° |
| 2026-04-07 15:16 | 47.88835 | 14.91939 | 35200 ft | 453 kts | 49° |
| 2026-04-07 15:16 | 47.92552 | 14.99524 | 35198 ft | 453 kts | 49° |
| 2026-04-07 15:17 | 47.96237 | 15.07062 | 35198 ft | 452 kts | 49° |
| 2026-04-07 15:17 | 47.99939 | 15.14657 | 35207 ft | 452 kts | 49° |
| 2026-04-07 15:18 | 48.03630 | 15.22250 | 35195 ft | 452 kts | 49° |
| 2026-04-07 15:18 | 48.07323 | 15.29868 | 35190 ft | 452 kts | 49° |
| 2026-04-07 15:19 | 48.11006 | 15.37486 | 35197 ft | 452 kts | 49° |
| 2026-04-07 15:19 | 48.14684 | 15.45117 | 35198 ft | 452 kts | 48° |
| 2026-04-07 15:20 | 48.18355 | 15.52754 | 35197 ft | 451 kts | 48° |
| 2026-04-07 15:20 | 48.22018 | 15.60397 | 35195 ft | 451 kts | 48° |
| 2026-04-07 15:21 | 48.25673 | 15.68042 | 35191 ft | 451 kts | 48° |
| 2026-04-07 15:21 | 48.29324 | 15.75703 | 35196 ft | 451 kts | 48° |
| 2026-04-07 15:22 | 48.32948 | 15.83325 | 35192 ft | 451 kts | 48° |
| 2026-04-07 15:22 | 48.36590 | 15.91001 | 35194 ft | 451 kts | 48° |
| 2026-04-07 15:23 | 48.40225 | 15.98685 | 35195 ft | 451 kts | 48° |
| 2026-04-07 15:23 | 48.43612 | 16.06693 | 35195 ft | 455 kts | 52° |
| 2026-04-07 15:24 | 48.46916 | 16.14808 | 35194 ft | 454 kts | 51° |
| 2026-04-07 15:24 | 48.50234 | 16.22923 | 35188 ft | 454 kts | 51° |
| 2026-04-07 15:25 | 48.53544 | 16.31033 | 35190 ft | 454 kts | 51° |
| 2026-04-07 15:25 | 48.56853 | 16.39165 | 35190 ft | 455 kts | 51° |
| 2026-04-07 15:26 | 48.60161 | 16.47320 | 35186 ft | 455 kts | 51° |
| 2026-04-07 15:26 | 48.63460 | 16.55479 | 35186 ft | 455 kts | 51° |
| 2026-04-07 15:27 | 48.66736 | 16.63604 | 35181 ft | 455 kts | 51° |
| 2026-04-07 15:27 | 48.70018 | 16.71770 | 35177 ft | 454 kts | 51° |
| 2026-04-07 15:28 | 48.73389 | 16.79835 | 35168 ft | 447 kts | 44° |
| 2026-04-07 15:28 | 48.77217 | 16.87243 | 35170 ft | 447 kts | 44° |
| 2026-04-07 15:29 | 48.81069 | 16.94671 | 35176 ft | 446 kts | 44° |
| 2026-04-07 15:29 | 48.84880 | 17.02034 | 35174 ft | 446 kts | 44° |
| 2026-04-07 15:30 | 48.88709 | 17.09452 | 35179 ft | 446 kts | 44° |
| 2026-04-07 15:30 | 48.92535 | 17.16884 | 35186 ft | 446 kts | 44° |
| 2026-04-07 15:31 | 48.96354 | 17.24323 | 35190 ft | 446 kts | 44° |
| 2026-04-07 15:31 | 49.00168 | 17.31773 | 35191 ft | 446 kts | 44° |
| 2026-04-07 15:32 | 49.03972 | 17.39225 | 35189 ft | 446 kts | 44° |
| 2026-04-07 15:32 | 49.07781 | 17.46708 | 35189 ft | 445 kts | 44° |
| 2026-04-07 15:33 | 49.11553 | 17.54136 | 35189 ft | 445 kts | 44° |
| 2026-04-07 15:33 | 49.15344 | 17.61627 | 35168 ft | 445 kts | 44° |
| 2026-04-07 15:34 | 49.19127 | 17.69119 | 35172 ft | 445 kts | 44° |
| 2026-04-07 15:34 | 49.22903 | 17.76621 | 35163 ft | 445 kts | 44° |
| 2026-04-07 15:35 | 49.26652 | 17.84088 | 35164 ft | 444 kts | 44° |
| 2026-04-07 15:35 | 49.30409 | 17.91595 | 35172 ft | 444 kts | 44° |
| 2026-04-07 15:36 | 49.34177 | 17.99143 | 35175 ft | 445 kts | 44° |
| 2026-04-07 15:36 | 49.37932 | 18.06686 | 35183 ft | 445 kts | 44° |
| 2026-04-07 15:37 | 49.41683 | 18.14244 | 35181 ft | 445 kts | 44° |
| 2026-04-07 15:37 | 49.45416 | 18.21786 | 34710 ft | 439 kts | 43° |
| 2026-04-07 15:37 | 49.47256 | 18.25512 | 34107 ft | 437 kts | 43° |
| 2026-04-07 15:38 | 49.49096 | 18.29240 | 33258 ft | 438 kts | 43° |
| 2026-04-07 15:38 | 49.50936 | 18.32977 | 32535 ft | 438 kts | 43° |
| 2026-04-07 15:38 | 49.52754 | 18.36675 | 31792 ft | 440 kts | 43° |
| 2026-04-07 15:38 | 49.54606 | 18.40446 | 31007 ft | 442 kts | 44° |
| 2026-04-07 15:39 | 49.56466 | 18.44236 | 29899 ft | 449 kts | 44° |
| 2026-04-07 15:39 | 49.58375 | 18.48129 | 28473 ft | 460 kts | 44° |
| 2026-04-07 15:39 | 49.60321 | 18.52113 | 27184 ft | 468 kts | 44° |
| 2026-04-07 15:39 | 49.62276 | 18.56117 | 26386 ft | 465 kts | 44° |
| 2026-04-07 15:40 | 49.64213 | 18.60086 | 25579 ft | 463 kts | 44° |
| 2026-04-07 15:40 | 49.66138 | 18.64039 | 24912 ft | 458 kts | 44° |
| 2026-04-07 15:40 | 49.68036 | 18.67940 | 24232 ft | 453 kts | 44° |
| 2026-04-07 15:40 | 49.69657 | 18.72170 | 23513 ft | 467 kts | 59° |
| 2026-04-07 15:41 | 49.70857 | 18.76818 | 22765 ft | 463 kts | 59° |
| 2026-04-07 15:41 | 49.72038 | 18.81421 | 22075 ft | 458 kts | 59° |
| 2026-04-07 15:41 | 49.73169 | 18.85918 | 21415 ft | 453 kts | 60° |
| 2026-04-07 15:41 | 49.74294 | 18.90452 | 20724 ft | 448 kts | 60° |
| 2026-04-07 15:42 | 49.75397 | 18.94929 | 20078 ft | 443 kts | 60° |
| 2026-04-07 15:42 | 49.76484 | 18.99359 | 19487 ft | 438 kts | 59° |
| 2026-04-07 15:42 | 49.78619 | 19.08081 | 18239 ft | 428 kts | 59° |
| 2026-04-07 15:43 | 49.79666 | 19.12381 | 17533 ft | 425 kts | 59° |
| 2026-04-07 15:43 | 49.80704 | 19.16645 | 16823 ft | 422 kts | 60° |
| 2026-04-07 15:43 | 49.81731 | 19.20875 | 16087 ft | 418 kts | 60° |
| 2026-04-07 15:43 | 49.82752 | 19.25094 | 15444 ft | 415 kts | 60° |
| 2026-04-07 15:44 | 49.83764 | 19.29274 | 14743 ft | 414 kts | 60° |
| 2026-04-07 15:44 | 49.84754 | 19.33381 | 14134 ft | 410 kts | 60° |
| 2026-04-07 15:44 | 49.85746 | 19.37500 | 13548 ft | 405 kts | 61° |
| 2026-04-07 15:44 | 49.86718 | 19.41539 | 13180 ft | 393 kts | 61° |
| 2026-04-07 15:45 | 49.87657 | 19.45447 | 12929 ft | 380 kts | 61° |
| 2026-04-07 15:45 | 49.88560 | 19.49215 | 12729 ft | 367 kts | 61° |
| 2026-04-07 15:45 | 49.89432 | 19.52858 | 12563 ft | 353 kts | 61° |
| 2026-04-07 15:45 | 49.90270 | 19.56367 | 12405 ft | 340 kts | 61° |
| 2026-04-07 15:46 | 49.91072 | 19.59736 | 12277 ft | 326 kts | 61° |
| 2026-04-07 15:46 | 49.91842 | 19.62975 | 12176 ft | 313 kts | 61° |
| 2026-04-07 15:46 | 49.92577 | 19.66069 | 12079 ft | 299 kts | 60° |
| 2026-04-07 15:46 | 49.93281 | 19.69033 | 12022 ft | 286 kts | 60° |
| 2026-04-07 15:47 | 49.93968 | 19.71922 | 11644 ft | 286 kts | 61° |
| 2026-04-07 15:47 | 49.94651 | 19.74808 | 11317 ft | 284 kts | 62° |
| 2026-04-07 15:47 | 49.95320 | 19.77640 | 10965 ft | 282 kts | 62° |
| 2026-04-07 15:47 | 49.95990 | 19.80477 | 10675 ft | 278 kts | 63° |
| 2026-04-07 15:48 | 49.96656 | 19.83300 | 10333 ft | 277 kts | 63° |
| 2026-04-07 15:48 | 49.97315 | 19.86095 | 10019 ft | 275 kts | 64° |
| 2026-04-07 15:48 | 49.97970 | 19.88875 | 9658 ft | 273 kts | 64° |
| 2026-04-07 15:48 | 49.98618 | 19.91630 | 9267 ft | 272 kts | 64° |
| 2026-04-07 15:49 | 49.99264 | 19.94384 | 8924 ft | 269 kts | 64° |
| 2026-04-07 15:49 | 49.99907 | 19.97124 | 8545 ft | 269 kts | 64° |
| 2026-04-07 15:49 | 50.00543 | 19.99836 | 8208 ft | 267 kts | 64° |
| 2026-04-07 15:49 | 50.01176 | 20.02545 | 7883 ft | 264 kts | 64° |
| 2026-04-07 15:50 | 50.01795 | 20.05190 | 7724 ft | 255 kts | 64° |
| 2026-04-07 15:50 | 50.02395 | 20.07710 | 7642 ft | 241 kts | 59° |
| 2026-04-07 15:50 | 50.03352 | 20.09700 | 7326 ft | 225 kts | 30° |
| 2026-04-07 15:50 | 50.04720 | 20.10612 | 7064 ft | 210 kts | 4° |
| 2026-04-07 15:51 | 50.06120 | 20.10568 | 6971 ft | 196 kts | 350° |
| 2026-04-07 15:51 | 50.07473 | 20.10286 | 6657 ft | 197 kts | 349° |
| 2026-04-07 15:51 | 50.08831 | 20.09951 | 6388 ft | 197 kts | 348° |
| 2026-04-07 15:51 | 50.10156 | 20.09455 | 6243 ft | 195 kts | 333° |
| 2026-04-07 15:52 | 50.11138 | 20.08043 | 6081 ft | 197 kts | 303° |
| 2026-04-07 15:52 | 50.11448 | 20.05941 | 5857 ft | 207 kts | 272° |
| 2026-04-07 15:52 | 50.11318 | 20.04467 | 5642 ft | 209 kts | 268° |
| 2026-04-07 15:52 | 50.10986 | 20.01468 | 5014 ft | 210 kts | 268° |
| 2026-04-07 15:53 | 50.10818 | 19.99989 | 4561 ft | 207 kts | 268° |
| 2026-04-07 15:53 | 50.10486 | 19.97062 | 3618 ft | 205 kts | 264° |
| 2026-04-07 15:53 | 50.10231 | 19.95645 | 3191 ft | 200 kts | 261° |
| 2026-04-07 15:53 | 50.09806 | 19.93111 | 2712 ft | 165 kts | 265° |
| 2026-04-07 15:54 | 50.09577 | 19.91483 | 2450 ft | 144 kts | 266° |
| 2026-04-07 15:54 | 50.09378 | 19.90039 | 2228 ft | 130 kts | 268° |
| 2026-04-07 15:54 | 50.09253 | 19.89117 | 2096 ft | 133 kts | 268° |
| 2026-04-07 15:54 | 50.09055 | 19.87682 | 1883 ft | 133 kts | 267° |
| 2026-04-07 15:55 | 50.08865 | 19.86297 | 1676 ft | 132 kts | 265° |
| 2026-04-07 15:55 | 50.08664 | 19.84873 | 1474 ft | 136 kts | 266° |
| 2026-04-07 15:55 | 50.08465 | 19.83452 | 1278 ft | 132 kts | 265° |
| 2026-04-07 15:55 | 50.08274 | 19.82065 | 1110 ft | 130 kts | 262° |
| 2026-04-07 15:56 | 50.08074 | 19.80714 | 944 ft | 125 kts | 263° |
| 2026-04-07 15:56 | 50.07891 | 19.79388 | 809 ft | 118 kts | 268° |
| 2026-04-07 15:56 | 50.07774 | 19.78396 | 804 ft | 50 kts | 256° |
| 2026-04-07 15:56 | 50.07686 | 19.78098 | 801 ft | 21 kts | 194° |
| 2026-04-07 15:57 | 50.07533 | 19.78084 | 802 ft | 23 kts | 181° |
| 2026-04-07 15:57 | 50.07474 | 19.78139 | 802 ft | 11 kts | 94° |
| 2026-04-07 15:57 | 50.07491 | 19.78282 | 802 ft | 18 kts | 78° |
| 2026-04-07 15:57 | 50.07527 | 19.78538 | 802 ft | 29 kts | 78° |
| 2026-04-07 15:58 | 50.07573 | 19.78864 | 802 ft | 32 kts | 77° |
| 2026-04-07 15:58 | 50.07621 | 19.79212 | 802 ft | 34 kts | 77° |
| 2026-04-07 15:58 | 50.07665 | 19.79527 | 802 ft | 27 kts | 78° |
| 2026-04-07 15:58 | 50.07702 | 19.79794 | 802 ft | 15 kts | 78° |
| 2026-04-07 15:59 | 50.07652 | 19.79886 | 802 ft | 14 kts | 168° |
| 2026-04-07 15:59 | 50.07549 | 19.79920 | 802 ft | 16 kts | 167° |
| 2026-04-07 15:59 | 50.07515 | 19.80019 | 802 ft | 10 kts | 77° |
| 2026-04-07 15:59 | 50.07531 | 19.80105 | 802 ft | 4 kts | 37° |
| 2026-04-07 16:00 | 50.07564 | 19.80101 | 802 ft | 7 kts | 349° |
| 2026-04-07 16:00 | 50.07578 | 19.80097 | 802 ft | 0 kts | 348° |